Time;durP1;ratioP1;P1;durP2;ratioP2;P2;SDS_P1;SDS_P2;PMS_P1;PMS_P2;Temp;Humidity;BMP_temperature;BMP_pressure;BME280_temperature;BME280_humidity;BME280_pressure;Samples;Min_cycle;Max_cycle;Signal;HPM_P1;HPM_P2
2022/01/17 00:01:28;;;;;;;38.13;26.10;;;;;;;-2.24;74.57;93244.72;4991225;28;20283;-77
2022/01/17 00:03:54;;;;;;;38.93;25.50;;;;;;;-2.06;74.39;93254.50;4993196;28;20196;-78
2022/01/17 00:06:19;;;;;;;60.57;34.87;;;;;;;-1.85;73.69;93254.41;4990970;28;20243;-77
2022/01/17 00:08:46;;;;;;;57.27;34.07;;;;;;;-2.19;75.47;93251.84;4994406;28;20196;-77
2022/01/17 00:11:12;;;;;;;46.60;30.83;;;;;;;-2.16;74.50;93239.47;4998436;28;20231;-77
2022/01/17 00:13:39;;;;;;;49.67;29.63;;;;;;;-2.10;72.99;93223.38;5012338;28;20326;-77
2022/01/17 00:21:02;;;;;;;58.37;38.17;;;;;;;-2.03;72.04;93249.81;4998132;28;20238;-78
2022/01/17 00:23:27;;;;;;;45.70;30.93;;;;;;;-1.91;71.52;93255.16;5011334;28;20248;-78
2022/01/17 00:25:53;;;;;;;38.30;28.23;;;;;;;-2.07;72.48;93258.03;5005327;28;20223;-77
2022/01/17 00:28:18;;;;;;;38.17;26.57;;;;;;;-2.17;73.48;93263.47;4992470;28;20173;-77
2022/01/17 00:30:44;;;;;;;35.67;25.63;;;;;;;-2.38;75.02;93248.16;4990626;28;20251;-78
2022/01/17 00:33:11;;;;;;;32.13;26.43;;;;;;;-2.38;74.17;93220.03;4993137;28;20192;-77
2022/01/17 00:35:36;;;;;;;37.73;28.53;;;;;;;-2.35;74.53;93250.34;4991431;28;20223;-77
2022/01/17 00:38:02;;;;;;;41.70;28.93;;;;;;;-2.13;74.02;93269.78;4988724;28;20231;-77
2022/01/17 00:40:28;;;;;;;43.77;29.60;;;;;;;-2.17;73.11;93240.47;4993537;28;20221;-78
2022/01/17 00:42:54;;;;;;;32.80;22.33;;;;;;;-2.03;72.71;93266.91;5011944;28;20199;-77
2022/01/17 00:45:26;;;;;;;25.87;21.10;;;;;;;-2.00;73.56;93269.09;5011413;28;20206;-77
2022/01/17 00:47:51;;;;;;;25.57;20.73;;;;;;;-2.17;74.27;93267.78;4992184;28;20228;-78
2022/01/17 00:50:17;;;;;;;27.07;22.53;;;;;;;-2.11;74.38;93262.72;4993027;28;20239;-77
2022/01/17 00:52:42;;;;;;;26.27;22.20;;;;;;;-2.40;75.51;93268.03;4990738;28;20169;-77
2022/01/17 00:55:08;;;;;;;24.50;21.07;;;;;;;-2.06;73.82;93265.53;4977482;28;20210;-77
2022/01/17 00:57:34;;;;;;;24.50;20.63;;;;;;;-2.31;74.78;93241.34;4992625;28;20228;-77
2022/01/17 00:59:59;;;;;;;31.80;23.67;;;;;;;-2.12;74.21;93257.81;4993631;28;20302;-78
2022/01/17 01:02:25;;;;;;;29.70;23.33;;;;;;;-2.36;74.92;93241.09;5009837;28;20223;-77
2022/01/17 01:04:50;;;;;;;31.40;23.83;;;;;;;-2.13;74.13;93233.19;5011930;28;20190;-78
2022/01/17 01:07:16;;;;;;;36.53;26.43;;;;;;;-2.25;75.33;93235.47;4996109;28;20321;-78
2022/01/17 01:10:06;;;;;;;45.90;30.20;;;;;;;-2.08;74.34;93241.91;4988309;28;20203;-78
2022/01/17 01:12:27;;;;;;;23.50;21.00;;;;;;;-2.03;72.23;93225.97;4999860;28;21067;-77
2022/01/17 01:14:52;;;;;;;27.13;22.93;;;;;;;-2.07;72.58;93247.81;5002383;28;20302;-77
2022/01/17 01:17:36;;;;;;;26.07;22.27;;;;;;;-2.45;74.54;93239.66;4989273;28;20239;-77
2022/01/17 01:28:31;;;;;;;24.33;19.67;;;;;;;-2.43;74.82;93214.69;4992434;28;20207;-77
2022/01/17 01:30:59;;;;;;;25.87;20.97;;;;;;;-2.22;74.29;93224.88;4992307;28;20291;-77
2022/01/17 01:33:34;;;;;;;25.23;19.30;;;;;;;-2.11;73.22;93216.69;4992220;28;20184;-77
2022/01/17 01:36:08;;;;;;;21.40;18.47;;;;;;;-2.28;72.37;93183.94;4988711;28;20267;-77
2022/01/17 01:38:35;;;;;;;22.33;18.57;;;;;;;-2.28;73.16;93220.53;4992642;28;20211;-77
2022/01/17 01:41:01;;;;;;;25.80;18.77;;;;;;;-2.46;75.25;93222.72;4990727;28;20228;-77
2022/01/17 01:43:26;;;;;;;21.97;19.27;;;;;;;-2.44;73.47;93195.22;4989789;28;21088;-77
2022/01/17 01:45:57;;;;;;;23.27;20.53;;;;;;;-2.68;75.00;93218.66;4991489;28;20235;-75
2022/01/17 01:48:23;;;;;;;25.33;20.43;;;;;;;-2.51;74.31;93217.41;4991261;28;20251;-76
2022/01/17 01:50:49;;;;;;;25.47;21.60;;;;;;;-2.74;76.30;93201.47;4991059;28;20250;-76
2022/01/17 01:53:14;;;;;;;26.87;19.83;;;;;;;-2.80;75.20;93179.22;4991496;28;20256;-76
2022/01/17 01:55:40;;;;;;;22.30;17.53;;;;;;;-2.32;73.76;93209.06;4989061;28;20233;-76
2022/01/17 01:58:06;;;;;;;23.13;19.47;;;;;;;-2.30;73.11;93202.00;4991658;28;20252;-76
2022/01/17 02:00:31;;;;;;;23.60;19.20;;;;;;;-2.19;73.51;93216.84;4991910;28;20251;-77
2022/01/17 02:02:57;;;;;;;23.57;19.67;;;;;;;-2.57;74.51;93179.03;5009180;28;20190;-76
2022/01/17 02:05:22;;;;;;;23.23;20.00;;;;;;;-2.71;76.13;93192.66;5009003;28;20180;-76
2022/01/17 02:07:48;;;;;;;18.10;16.00;;;;;;;-2.46;74.03;93204.84;4990427;28;20195;-76
2022/01/17 02:10:14;;;;;;;21.33;17.60;;;;;;;-2.38;74.06;93204.72;4991753;28;21004;-76
2022/01/17 02:12:40;;;;;;;19.17;17.27;;;;;;;-2.74;74.41;93173.38;5009172;28;20222;-77
2022/01/17 02:15:06;;;;;;;21.67;17.70;;;;;;;-2.58;74.27;93168.00;5010521;28;20266;-77
2022/01/17 02:17:34;;;;;;;20.27;17.27;;;;;;;-2.43;72.85;93166.13;5010471;28;20223;-81
2022/01/17 02:20:09;;;;;;;23.97;18.47;;;;;;;-2.28;73.21;93197.50;5009750;28;20211;-77
2022/01/17 02:22:35;;;;;;;19.23;16.93;;;;;;;-2.38;74.27;93193.72;5009515;28;20223;-77
2022/01/17 02:25:01;;;;;;;39.97;24.40;;;;;;;-2.48;75.00;93180.47;5009283;28;20187;-77
2022/01/17 02:27:26;;;;;;;28.77;20.97;;;;;;;-2.37;73.94;93185.84;5009769;28;20219;-77
2022/01/17 02:29:52;;;;;;;31.03;21.80;;;;;;;-2.73;75.38;93184.41;5008990;28;20269;-77
2022/01/17 02:32:18;;;;;;;25.80;18.80;;;;;;;-2.88;75.21;93153.81;5010516;28;20226;-77
2022/01/17 02:34:44;;;;;;;21.27;18.67;;;;;;;-3.00;75.71;93155.28;5009176;28;20192;-76
2022/01/17 02:37:10;;;;;;;27.53;18.87;;;;;;;-2.81;75.06;93175.09;5009673;28;20250;-77
2022/01/17 02:39:36;;;;;;;25.23;20.93;;;;;;;-2.78;75.67;93174.72;4993106;28;20207;-77
2022/01/17 02:42:03;;;;;;;24.97;19.67;;;;;;;-2.81;76.19;93167.44;5010612;28;20219;-77
2022/01/17 02:44:29;;;;;;;25.87;19.13;;;;;;;-2.46;74.57;93191.28;5010290;28;20176;-77
2022/01/17 02:46:55;;;;;;;27.07;19.97;;;;;;;-2.69;75.56;93188.19;5008590;28;20223;-77
2022/01/17 02:49:21;;;;;;;31.80;22.73;;;;;;;-2.57;75.69;93181.56;5009035;28;20183;-77
2022/01/17 02:51:48;;;;;;;27.03;19.83;;;;;;;-2.79;76.24;93160.38;5008314;28;20295;-76
2022/01/17 02:54:14;;;;;;;28.43;19.47;;;;;;;-2.67;75.08;93171.69;5010854;28;20250;-77
2022/01/17 02:56:40;;;;;;;22.87;18.57;;;;;;;-2.84;75.91;93167.81;5009823;28;20234;-77
2022/01/17 02:59:06;;;;;;;21.93;18.57;;;;;;;-2.55;75.26;93188.06;5009306;28;20252;-77
2022/01/17 03:01:32;;;;;;;26.10;19.83;;;;;;;-2.61;75.79;93204.16;5008061;28;20231;-76
2022/01/17 03:03:58;;;;;;;25.03;18.63;;;;;;;-2.70;74.94;93148.25;5010772;28;20214;-77
2022/01/17 03:06:25;;;;;;;26.67;19.07;;;;;;;-2.74;74.77;93164.94;5008713;28;20650;-76
2022/01/17 03:08:51;;;;;;;21.77;19.10;;;;;;;-2.57;75.30;93176.47;5008265;28;20195;-77
2022/01/17 03:11:20;;;;;;;24.27;19.03;;;;;;;-2.67;75.81;93178.53;5009822;28;20314;-76
2022/01/17 03:13:47;;;;;;;23.50;18.83;;;;;;;-2.48;73.56;93139.56;5006826;28;20200;-77
2022/01/17 03:16:16;;;;;;;20.60;18.27;;;;;;;-2.54;74.03;93150.53;5008804;28;20223;-77
2022/01/17 03:18:49;;;;;;;20.73;15.70;;;;;;;-2.50;74.81;93170.41;5009433;28;20263;-77
2022/01/17 03:21:16;;;;;;;20.63;17.47;;;;;;;-2.64;75.40;93167.94;5007947;28;20811;-77
2022/01/17 03:23:43;;;;;;;20.47;17.90;;;;;;;-2.47;74.51;93152.16;5010163;28;20187;-77
2022/01/17 03:26:09;;;;;;;36.13;21.07;;;;;;;-2.55;74.96;93152.28;5007934;28;20219;-77
2022/01/17 03:28:35;;;;;;;26.83;19.63;;;;;;;-2.72;74.59;93119.53;4993677;28;20202;-77
2022/01/17 03:31:02;;;;;;;26.83;19.80;;;;;;;-2.47;75.14;93170.03;5009516;28;20231;-77
2022/01/17 03:33:28;;;;;;;35.80;23.43;;;;;;;-2.52;75.02;93172.38;5009890;28;20206;-77
2022/01/17 03:35:53;;;;;;;33.23;22.40;;;;;;;-2.36;73.83;93166.97;5007495;28;20226;-77
2022/01/17 03:38:22;;;;;;;33.67;23.90;;;;;;;-2.53;74.69;93175.91;5008860;28;20176;-77
2022/01/17 03:40:50;;;;;;;34.93;24.00;;;;;;;-2.67;76.31;93189.56;5003764;28;20234;-77
2022/01/17 03:43:16;;;;;;;31.70;21.20;;;;;;;-2.46;73.91;93192.06;4990610;28;20188;-77
2022/01/17 03:45:42;;;;;;;47.77;27.87;;;;;;;-2.65;75.36;93208.06;4990274;28;20232;-76
2022/01/17 03:48:08;;;;;;;44.60;26.60;;;;;;;-2.95;76.14;93183.63;4987317;28;20276;-77
2022/01/17 03:50:34;;;;;;;19.70;17.60;;;;;;;-2.47;74.54;93187.94;4991424;28;20308;-77
2022/01/17 03:53:00;;;;;;;18.17;16.33;;;;;;;-2.31;73.42;93205.56;4997089;28;20192;-76
2022/01/17 03:55:27;;;;;;;23.23;19.57;;;;;;;-2.40;74.36;93203.31;4998908;28;20255;-79
2022/01/17 03:57:53;;;;;;;29.53;20.83;;;;;;;-2.71;74.84;93197.78;4997453;28;20208;-79
2022/01/17 04:00:25;;;;;;;25.67;20.23;;;;;;;-2.73;75.34;93177.53;4998011;28;20216;-79
2022/01/17 04:02:51;;;;;;;57.87;29.43;;;;;;;-2.64;74.47;93188.38;5000981;28;20187;-79
2022/01/17 04:05:17;;;;;;;58.73;30.13;;;;;;;-2.44;73.37;93195.22;4997415;28;20267;-78
2022/01/17 04:07:42;;;;;;;43.03;24.43;;;;;;;-2.53;74.16;93193.78;4995122;28;21125;-78
2022/01/17 04:10:08;;;;;;;37.20;24.63;;;;;;;-2.82;74.57;93160.75;4997836;28;20211;-78
2022/01/17 04:12:34;;;;;;;32.50;22.47;;;;;;;-2.53;74.36;93201.47;4996601;28;20245;-78
2022/01/17 04:14:59;;;;;;;30.20;21.70;;;;;;;-2.90;74.21;93167.75;4996415;28;20180;-78
2022/01/17 04:17:29;;;;;;;29.83;21.33;;;;;;;-2.53;73.55;93219.34;4990198;28;20219;-79
2022/01/17 04:20:03;;;;;;;24.63;19.83;;;;;;;-2.53;73.51;93219.34;4990498;28;20219;-78
2022/01/17 04:22:36;;;;;;;28.73;20.17;;;;;;;-2.62;73.50;93189.81;4989944;28;20228;-78
2022/01/17 04:25:04;;;;;;;32.83;23.27;;;;;;;-2.44;73.26;93213.13;4988817;28;20188;-78
2022/01/17 04:27:29;;;;;;;36.70;26.20;;;;;;;-2.83;74.52;93164.28;5007446;28;20231;-79
2022/01/17 04:29:54;;;;;;;47.23;28.00;;;;;;;-2.69;74.10;93165.94;5013154;28;20214;-79
2022/01/17 04:32:20;;;;;;;34.73;23.50;;;;;;;-2.29;72.92;93201.03;4994992;28;20224;-80
2022/01/17 04:34:45;;;;;;;29.33;21.27;;;;;;;-2.67;74.71;93184.44;4990678;28;20287;-77
2022/01/17 04:37:11;;;;;;;22.30;17.87;;;;;;;-2.83;74.33;93151.50;5007263;28;20250;-77
2022/01/17 04:39:37;;;;;;;22.57;19.13;;;;;;;-2.86;75.54;93185.06;5009963;28;20243;-76
2022/01/17 04:42:10;;;;;;;21.27;19.07;;;;;;;-3.15;75.85;93141.81;4996331;28;20244;-85
2022/01/17 04:47:20;;;;;;;18.40;16.13;;;;;;;-2.87;74.21;93157.97;5008858;28;20262;-84
2022/01/17 04:49:46;;;;;;;18.60;15.10;;;;;;;-2.65;75.06;93205.50;5012161;28;20211;-90
2022/01/17 04:52:13;;;;;;;17.40;15.27;;;;;;;-2.87;74.77;93146.94;5010578;28;20251;-84
2022/01/17 04:54:41;;;;;;;22.10;16.93;;;;;;;-3.25;75.06;93076.75;4993721;28;20207;-89
2022/01/17 04:57:08;;;;;;;20.80;18.27;;;;;;;-2.33;72.68;93186.25;4991388;28;20262;-87
2022/01/17 04:59:33;;;;;;;21.60;17.57;;;;;;;-2.77;73.04;93150.75;4989494;28;20275;-82
2022/01/17 05:01:59;;;;;;;24.87;19.00;;;;;;;-2.55;73.54;93182.97;4991847;28;20954;-94
2022/01/17 05:04:24;;;;;;;25.27;20.50;;;;;;;-2.73;73.97;93154.53;4978649;28;20188;-87
2022/01/17 05:06:50;;;;;;;24.37;19.67;;;;;;;-2.42;73.29;93177.16;4991619;28;20258;-85
2022/01/17 05:09:15;;;;;;;19.80;17.87;;;;;;;-2.45;73.03;93157.88;4979242;28;20192;-88
2022/01/17 05:11:42;;;;;;;19.80;17.30;;;;;;;-2.68;75.25;93188.00;4977355;28;20223;-79
2022/01/17 05:14:08;;;;;;;21.53;17.73;;;;;;;-2.69;74.28;93154.97;4993180;28;20204;-83
2022/01/17 05:16:38;;;;;;;20.30;16.40;;;;;;;-2.66;72.28;93114.47;4991337;28;20227;-84
2022/01/17 05:21:48;;;;;;;18.07;14.43;;;;;;;-2.37;73.20;93151.81;4991344;28;20247;-83
2022/01/17 05:24:14;;;;;;;19.00;16.80;;;;;;;-2.62;73.84;93159.13;4988328;28;20191;-85
2022/01/17 05:26:39;;;;;;;18.37;16.47;;;;;;;-2.67;73.39;93123.13;4991142;28;21126;-80
2022/01/17 05:29:05;;;;;;;22.13;19.03;;;;;;;-2.59;73.15;93147.75;4989781;28;20192;-79
2022/01/17 05:31:30;;;;;;;20.63;18.53;;;;;;;-2.30;73.48;93193.53;5001311;28;20227;-81
2022/01/17 05:33:55;;;;;;;23.67;18.57;;;;;;;-2.39;72.64;93162.25;5010992;28;20251;-83
2022/01/17 05:36:21;;;;;;;23.10;17.50;;;;;;;-2.22;72.73;93190.84;5000381;28;20231;-84
2022/01/17 05:38:46;;;;;;;29.83;18.37;;;;;;;-2.40;72.95;93178.56;4989967;28;20188;-82
2022/01/17 05:41:12;;;;;;;28.97;18.47;;;;;;;-2.32;72.29;93188.63;4989216;28;20216;-83
2022/01/17 05:43:37;;;;;;;26.53;18.63;;;;;;;-2.35;73.45;93196.66;4992471;28;20879;-83
2022/01/17 05:46:03;;;;;;;23.20;18.77;;;;;;;-2.83;72.87;93136.16;4996114;28;20223;-84
2022/01/17 05:48:28;;;;;;;25.07;18.97;;;;;;;-2.77;73.11;93158.41;4994721;28;20182;-76
2022/01/17 05:50:54;;;;;;;29.10;20.00;;;;;;;-2.55;73.78;93208.50;5007891;28;20234;-77
2022/01/17 05:53:19;;;;;;;22.73;19.60;;;;;;;-2.70;74.88;93202.72;5007689;28;20206;-77
2022/01/17 05:55:45;;;;;;;26.60;19.60;;;;;;;-2.40;71.93;93193.91;5003826;28;20247;-76
2022/01/17 05:58:11;;;;;;;25.53;21.17;;;;;;;-2.32;71.97;93193.72;4989560;28;20196;-78
2022/01/17 06:00:37;;;;;;;33.93;25.53;;;;;;;-2.18;70.34;93177.50;4976228;28;20238;-78
2022/01/17 06:03:02;;;;;;;41.23;27.77;;;;;;;-2.55;71.20;93142.06;5008225;28;20255;-78
2022/01/17 06:05:28;;;;;;;43.10;27.80;;;;;;;-2.42;72.46;93205.25;5007028;28;20195;-78
2022/01/17 06:07:53;;;;;;;39.80;25.43;;;;;;;-3.34;74.00;93116.91;4991420;28;20187;-77
2022/01/17 06:10:19;;;;;;;38.70;24.70;;;;;;;-2.93;74.41;93176.59;4987731;28;20227;-77
2022/01/17 06:12:44;;;;;;;34.50;22.27;;;;;;;-3.14;74.63;93151.03;4999835;28;20188;-77
2022/01/17 06:15:10;;;;;;;36.20;22.90;;;;;;;-2.56;73.24;93194.16;4997509;28;20199;-78
2022/01/17 06:17:36;;;;;;;37.33;25.27;;;;;;;-2.61;73.77;93206.69;4990634;28;20216;-76
2022/01/17 06:20:03;;;;;;;32.70;21.90;;;;;;;-2.90;74.40;93188.19;4989936;28;20216;-77
2022/01/17 06:22:28;;;;;;;33.73;21.57;;;;;;;-2.84;74.04;93162.69;4988283;28;20224;-77
2022/01/17 06:24:54;;;;;;;30.03;21.60;;;;;;;-2.59;74.72;93203.97;4990353;28;20198;-77
2022/01/17 06:27:19;;;;;;;37.77;23.23;;;;;;;-2.75;73.72;93141.16;5006153;28;20267;-77
2022/01/17 06:29:45;;;;;;;38.10;23.27;;;;;;;-2.99;74.42;93133.91;5009168;28;20199;-77
2022/01/17 06:32:11;;;;;;;39.70;24.63;;;;;;;-2.34;73.38;93211.03;4992809;28;20239;-76
2022/01/17 06:34:36;;;;;;;38.57;23.90;;;;;;;-2.30;72.68;93217.34;4988697;28;20188;-77
2022/01/17 06:37:02;;;;;;;39.60;23.97;;;;;;;-2.44;74.01;93212.31;5003307;28;20253;-78
2022/01/17 06:39:27;;;;;;;40.57;24.60;;;;;;;-2.49;74.19;93200.09;5008927;28;20247;-77
2022/01/17 06:41:53;;;;;;;34.00;24.57;;;;;;;-2.58;73.09;93208.88;4980016;28;20235;-76
2022/01/17 06:44:18;;;;;;;37.43;25.70;;;;;;;-2.41;73.42;93210.19;4990322;28;20256;-80
2022/01/17 06:46:44;;;;;;;40.03;24.20;;;;;;;-2.25;72.25;93209.13;4989861;28;20243;-78
2022/01/17 06:49:09;;;;;;;44.87;26.47;;;;;;;-2.43;72.20;93155.91;4989982;28;20260;-78
2022/01/17 06:51:36;;;;;;;38.97;25.97;;;;;;;-2.11;75.58;93214.13;4988335;28;20216;-78
2022/01/17 06:54:02;;;;;;;33.90;25.57;;;;;;;-2.27;72.81;93191.41;4989812;28;20233;-76
2022/01/17 06:56:27;;;;;;;33.57;25.03;;;;;;;-2.13;72.13;93218.63;4989829;28;20232;-76
2022/01/17 06:58:53;;;;;;;36.63;23.93;;;;;;;-2.22;70.16;93188.28;4990602;28;20183;-76
2022/01/17 07:01:20;;;;;;;38.47;26.60;;;;;;;-1.95;71.14;93216.41;4988217;28;20220;-76
2022/01/17 07:03:46;;;;;;;38.90;27.07;;;;;;;-1.54;69.47;93224.06;4987770;28;20203;-75
2022/01/17 07:06:11;;;;;;;37.53;26.90;;;;;;;-1.80;68.54;93221.38;4989360;28;20228;-76
2022/01/17 07:08:37;;;;;;;42.17;26.10;;;;;;;-1.75;67.90;93196.03;4989575;28;20200;-76
2022/01/17 07:11:02;;;;;;;37.77;25.13;;;;;;;-1.45;68.78;93237.50;4988411;28;21069;-76
2022/01/17 07:13:28;;;;;;;34.27;23.77;;;;;;;-1.59;69.13;93215.38;4986431;28;20635;-77
2022/01/17 07:15:53;;;;;;;33.40;25.03;;;;;;;-1.76;70.59;93220.03;4991699;28;20255;-77
2022/01/17 07:18:19;;;;;;;51.57;27.03;;;;;;;-1.82;70.32;93187.50;4987569;28;20209;-78
2022/01/17 07:20:44;;;;;;;41.17;26.83;;;;;;;-1.54;70.69;93226.63;4991496;28;20271;-77
2022/01/17 07:23:10;;;;;;;50.83;30.40;;;;;;;-1.27;69.08;93253.13;5008780;28;20283;-77
2022/01/17 07:25:38;;;;;;;53.53;28.67;;;;;;;-1.42;70.21;93270.41;5006396;28;20238;-77
2022/01/17 07:28:06;;;;;;;44.03;25.87;;;;;;;-1.38;69.45;93263.91;4989599;28;20259;-76
2022/01/17 07:30:31;;;;;;;37.40;26.30;;;;;;;-1.69;67.68;93197.81;5006679;28;20180;-80
2022/01/17 07:32:56;;;;;;;36.27;25.10;;;;;;;-1.20;65.52;93206.09;5007084;28;20226;-82
2022/01/17 07:35:22;;;;;;;39.97;25.80;;;;;;;-0.80;65.34;93271.00;5007859;28;20207;-80
2022/01/17 07:37:47;;;;;;;41.43;25.90;;;;;;;-0.84;64.34;93251.88;5006137;28;20956;-79
2022/01/17 07:40:13;;;;;;;42.03;27.60;;;;;;;-0.99;65.82;93234.09;5009579;28;20223;-80
2022/01/17 07:42:39;;;;;;;36.23;24.23;;;;;;;-0.63;64.43;93244.81;5006351;28;20250;-80
2022/01/17 07:45:14;;;;;;;37.37;26.23;;;;;;;-0.33;63.02;93240.09;4991134;28;20227;-80
2022/01/17 07:50:11;;;;;;;35.87;26.17;;;;;;;-0.62;63.73;93228.44;5007943;28;20207;-80
2022/01/17 07:52:37;;;;;;;36.43;25.27;;;;;;;-0.48;63.07;93254.88;5007074;28;20223;-80
2022/01/17 07:55:03;;;;;;;30.70;21.30;;;;;;;-0.02;59.87;93265.94;5008737;28;20187;-81
2022/01/17 07:57:29;;;;;;;13.17;12.23;;;;;;;0.88;56.85;93300.13;5006818;28;20234;-82
2022/01/17 07:59:54;;;;;;;12.93;11.80;;;;;;;1.31;56.87;93319.13;5007237;28;20237;-82
2022/01/17 08:02:20;;;;;;;13.77;12.67;;;;;;;1.66;58.63;93329.84;4992962;28;20799;-76
2022/01/17 08:04:45;;;;;;;12.80;11.80;;;;;;;1.95;56.83;93315.56;4992769;28;20195;-77
2022/01/17 08:07:11;;;;;;;12.17;11.47;;;;;;;2.35;56.20;93324.59;4989923;28;20216;-76
2022/01/17 08:09:36;;;;;;;12.33;11.33;;;;;;;2.41;56.53;93306.47;4992387;28;20255;-77
2022/01/17 08:12:08;;;;;;;13.10;11.90;;;;;;;2.49;56.62;93271.94;5004987;28;20219;-78
2022/01/17 08:14:34;;;;;;;12.77;11.77;;;;;;;2.48;57.18;93223.97;5011359;28;20188;-77
2022/01/17 08:16:59;;;;;;;12.63;11.83;;;;;;;2.82;55.58;93247.38;4998863;28;20223;-77
2022/01/17 08:19:25;;;;;;;13.43;12.43;;;;;;;2.89;55.10;93226.69;4992732;28;20954;-78
2022/01/17 08:21:52;;;;;;;13.60;12.60;;;;;;;2.86;54.73;93232.28;5004955;28;20235;-77
2022/01/17 08:24:20;;;;;;;13.77;12.57;;;;;;;2.90;54.95;93229.06;5011400;28;20172;-77
2022/01/17 08:26:47;;;;;;;12.87;11.80;;;;;;;2.98;53.37;93264.84;4981612;28;20259;-77
2022/01/17 08:29:13;;;;;;;13.87;12.67;;;;;;;3.05;52.26;93303.47;4977218;28;20232;-77
2022/01/17 08:31:39;;;;;;;12.30;11.30;;;;;;;3.33;48.73;93314.06;4991797;28;20227;-78
2022/01/17 08:34:05;;;;;;;10.90;10.27;;;;;;;3.34;46.16;93313.03;4991887;28;20946;-77
2022/01/17 08:36:31;;;;;;;13.03;12.13;;;;;;;3.43;47.65;93353.03;4990317;28;20224;-71
2022/01/17 08:38:56;;;;;;;11.87;11.17;;;;;;;3.53;49.31;93370.56;4992338;28;20192;-71
2022/01/17 08:41:22;;;;;;;10.50;9.53;;;;;;;3.61;48.47;93308.34;4992908;28;20239;-73
2022/01/17 08:43:48;;;;;;;11.10;10.40;;;;;;;3.55;49.77;93312.56;4989858;28;20196;-73
2022/01/17 08:46:14;;;;;;;11.97;11.07;;;;;;;3.42;49.88;93314.53;4993495;28;20303;-73
2022/01/17 08:48:40;;;;;;;11.90;11.17;;;;;;;3.36;49.16;93272.34;4991872;28;20196;-73
2022/01/17 08:51:07;;;;;;;10.87;10.17;;;;;;;3.37;49.75;93276.47;4998557;28;20230;-74
2022/01/17 08:53:33;;;;;;;10.80;10.10;;;;;;;3.36;51.21;93233.63;5011683;28;20195;-74
2022/01/17 08:55:58;;;;;;;11.83;11.20;;;;;;;3.36;49.71;93197.50;5004042;28;20228;-76
2022/01/17 08:58:24;;;;;;;11.10;10.50;;;;;;;3.51;48.33;93195.28;4991971;28;20303;-76
2022/01/17 09:00:50;;;;;;;10.27;9.77;;;;;;;3.53;47.59;93211.34;4995999;28;20285;-81
2022/01/17 09:03:16;;;;;;;11.53;10.83;;;;;;;3.99;46.16;93223.53;5011969;28;20183;-73
2022/01/17 09:05:42;;;;;;;10.30;9.23;;;;;;;4.00;45.02;93187.13;5007910;28;20232;-78
2022/01/17 09:08:11;;;;;;;10.83;10.23;;;;;;;4.13;43.43;93168.06;4974818;28;20180;-78
2022/01/17 09:10:38;;;;;;;9.67;9.10;;;;;;;4.36;42.25;93168.81;4995971;28;20235;-79
2022/01/17 09:13:04;;;;;;;9.70;9.20;;;;;;;4.51;41.01;93145.84;4992424;28;20199;-80
2022/01/17 09:15:30;;;;;;;9.77;9.17;;;;;;;4.59;36.99;93124.06;5009148;28;20191;-78
2022/01/17 09:17:56;;;;;;;10.57;9.77;;;;;;;4.61;38.86;93096.94;4991422;28;20228;-79
2022/01/17 09:20:22;;;;;;;10.67;10.07;;;;;;;4.83;36.43;93139.25;4989779;28;20250;-79
2022/01/17 09:22:48;;;;;;;10.53;9.53;;;;;;;4.85;33.64;93118.34;4990649;28;20200;-78
2022/01/17 09:25:13;;;;;;;10.97;10.47;;;;;;;4.70;35.15;93089.63;4991208;28;20223;-78
2022/01/17 09:27:39;;;;;;;9.33;8.83;;;;;;;5.05;36.06;93131.63;4990869;28;20658;-83
2022/01/17 09:30:08;;;;;;;10.60;10.10;;;;;;;4.96;33.16;93133.03;4990490;28;20199;-81
2022/01/17 09:32:34;;;;;;;11.00;10.20;;;;;;;4.82;34.18;93124.75;4990759;28;20267;-81
2022/01/17 09:34:59;;;;;;;9.70;9.20;;;;;;;5.00;37.87;93128.94;4992052;28;20213;-82
2022/01/17 09:37:25;;;;;;;10.33;9.63;;;;;;;4.77;38.59;93123.88;4992026;28;20220;-84
2022/01/17 09:39:51;;;;;;;10.07;9.57;;;;;;;4.70;37.67;93095.56;4991964;28;20219;-83
2022/01/17 09:42:17;;;;;;;11.43;10.67;;;;;;;4.62;43.07;93163.16;4991365;28;20231;-83
2022/01/17 09:44:42;;;;;;;12.70;11.73;;;;;;;4.67;45.50;93191.69;4991763;28;20192;-84
2022/01/17 09:47:10;;;;;;;11.83;10.93;;;;;;;4.32;46.37;93126.38;4991537;28;20263;-83
2022/01/17 09:49:50;;;;;;;12.87;11.77;;;;;;;4.00;46.84;93122.56;4990256;28;20216;-84
2022/01/17 09:52:35;;;;;;;11.67;10.93;;;;;;;4.17;47.59;93154.44;4990067;28;20223;-83
2022/01/17 09:55:11;;;;;;;11.93;11.07;;;;;;;4.25;47.98;93159.28;4989164;28;20196;-82
2022/01/17 09:58:03;;;;;;;12.87;11.90;;;;;;;4.13;48.18;93131.88;4989790;28;20381;-83
2022/01/17 10:00:31;;;;;;;12.20;11.33;;;;;;;3.95;49.28;93116.53;4993145;28;20208;-83
2022/01/17 10:02:59;;;;;;;12.43;11.63;;;;;;;4.22;49.05;93161.53;5010521;28;20202;-84
2022/01/17 10:05:26;;;;;;;12.47;11.53;;;;;;;4.31;48.17;93173.09;5008260;28;20239;-83
2022/01/17 10:07:58;;;;;;;12.50;11.53;;;;;;;4.39;49.31;93162.44;4989466;28;20217;-82
2022/01/17 10:10:50;;;;;;;12.33;11.33;;;;;;;4.44;49.23;93189.16;4988371;28;20264;-83
2022/01/17 10:13:24;;;;;;;12.20;11.30;;;;;;;4.34;49.75;93186.34;4989347;28;20188;-82
2022/01/17 10:16:16;;;;;;;12.50;11.57;;;;;;;4.28;50.09;93171.75;4989287;28;20232;-81
2022/01/17 10:19:00;;;;;;;12.80;11.63;;;;;;;5.72;49.78;93186.88;4972460;28;20204;-78
2022/01/17 10:21:46;;;;;;;12.33;11.20;;;;;;;4.90;49.09;93175.34;4972923;28;20267;-76
2022/01/17 10:35:08;;;;;;;14.63;13.23;;;;;;;4.68;51.94;93162.25;4989344;28;20206;-77
2022/01/17 10:37:33;;;;;;;15.57;13.83;;;;;;;4.11;57.03;93118.44;5007433;28;20245;-76
2022/01/17 10:40:05;;;;;;;16.07;14.57;;;;;;;3.60;62.53;93137.16;5009618;28;20215;-74
2022/01/17 10:42:37;;;;;;;13.90;12.47;;;;;;;3.96;59.26;93149.88;4989154;28;20227;-76
2022/01/17 10:45:30;;;;;;;15.37;14.07;;;;;;;4.06;56.02;93126.06;4988826;28;20196;-75
2022/01/17 10:47:58;;;;;;;14.63;13.20;;;;;;;3.94;59.05;93143.38;4988588;28;20236;-80
2022/01/17 10:50:29;;;;;;;15.17;13.90;;;;;;;3.51;60.18;93089.47;4987477;28;20204;-81
2022/01/17 10:53:01;;;;;;;15.93;14.43;;;;;;;3.73;60.80;93136.97;4990256;28;20188;-78
2022/01/17 10:55:36;;;;;;;15.90;14.30;;;;;;;3.77;59.73;93125.16;4990703;28;20192;-75
2022/01/17 10:58:04;;;;;;;14.93;13.60;;;;;;;4.14;56.69;93131.66;4987617;28;20192;-78
2022/01/17 11:00:36;;;;;;;14.80;13.57;;;;;;;4.40;53.93;93141.53;4988036;28;20223;-78
2022/01/17 11:03:05;;;;;;;14.80;12.60;;;;;;;4.43;53.42;93140.28;4989949;28;20184;-75
2022/01/17 11:05:32;;;;;;;21.90;13.33;;;;;;;4.49;53.63;93142.72;4983698;28;20219;-79
2022/01/17 11:08:01;;;;;;;13.13;12.03;;;;;;;4.55;54.11;93139.22;4986123;28;20222;-77
2022/01/17 11:10:37;;;;;;;13.40;12.40;;;;;;;4.58;53.32;93156.88;4983943;28;20231;-77
2022/01/17 11:13:05;;;;;;;13.17;12.13;;;;;;;4.57;53.21;93170.03;4984665;28;20199;-79
2022/01/17 11:15:33;;;;;;;12.10;11.30;;;;;;;4.53;52.97;93117.97;4990634;28;20609;-81
2022/01/17 11:18:16;;;;;;;13.20;12.27;;;;;;;4.47;53.33;93082.72;5007509;28;20184;-79
2022/01/17 11:20:42;;;;;;;12.57;11.67;;;;;;;4.54;54.08;93108.44;4989150;28;20258;-77
2022/01/17 11:23:07;;;;;;;11.57;10.87;;;;;;;4.52;54.10;93097.53;5008998;28;20195;-79
2022/01/17 11:25:36;;;;;;;15.00;14.13;;;;;;;4.47;52.06;93095.63;5002567;28;20201;-78
2022/01/17 11:28:04;;;;;;;14.97;13.97;;;;;;;4.53;51.70;93105.06;4990016;28;20194;-78
2022/01/17 11:30:30;;;;;;;12.33;11.47;;;;;;;4.47;52.31;93085.31;4987822;28;20196;-77
2022/01/17 11:32:58;;;;;;;13.50;12.67;;;;;;;4.48;52.42;93083.50;4987660;28;20259;-76
2022/01/17 11:35:24;;;;;;;12.77;11.83;;;;;;;4.50;51.99;93084.84;4984415;28;20216;-77
2022/01/17 11:37:55;;;;;;;12.83;11.87;;;;;;;4.53;51.29;93092.13;4987732;28;20219;-77
2022/01/17 11:40:30;;;;;;;11.83;10.93;;;;;;;4.62;53.64;93079.63;4986770;28;21098;-78
2022/01/17 11:42:58;;;;;;;12.60;11.80;;;;;;;4.51;50.69;93049.44;4988684;28;20196;-83
2022/01/17 11:45:23;;;;;;;14.77;14.07;;;;;;;4.69;50.83;93078.47;4987323;28;20756;-76
2022/01/17 11:47:52;;;;;;;11.57;10.97;;;;;;;4.61;51.56;93085.81;4989406;28;20223;-75
2022/01/17 11:50:32;;;;;;;11.83;11.13;;;;;;;4.55;51.56;93094.50;4989163;28;20271;-75
2022/01/17 11:53:17;;;;;;;12.23;11.43;;;;;;;4.25;52.56;93081.75;5007421;28;20218;-77